METEOROLOGIA BHB

12 - 19:00 - METAR SAZB 121900Z 18016KT 9999 FEW040 21/02 Q1014 =

IMAGEN SATELITAL

WINDY